Time;durP1;ratioP1;P1;durP2;ratioP2;P2;SDS_P1;SDS_P2;PMS_P1;PMS_P2;Temp;Humidity;BMP_temperature;BMP_pressure;BME280_temperature;BME280_humidity;BME280_pressure;Samples;Min_cycle;Max_cycle;Signal;HPM_P1;HPM_P2
2022/12/08 00:03:35;;;;;;;6.37;4.87;;;;;;;;;;5087126;28;20035;-54
2022/12/08 00:09:36;;;;;;;4.15;3.65;;;;;;;;;;5087191;28;20031;-57
2022/12/08 00:12:20;;;;;;;8.25;5.22;;;;;;;;;;5081725;28;20024;-58
2022/12/08 00:17:56;;;;;;;4.97;4.25;;;;;;;;;;5086142;28;20504;-58
2022/12/08 00:23:57;;;;;;;4.63;3.85;;;;;;;;;;5086325;28;20035;-58
2022/12/08 00:26:40;;;;;;;;;;;;;;;;;;;;;
2022/12/08 00:29:18;;;;;;;6.03;4.87;;;;;;;;;;5128889;28;20050;-58
2022/12/08 00:35:18;;;;;;;6.43;4.33;;;;;;;;;;5093956;28;20059;-58
2022/12/08 00:38:09;;;;;;;7.20;4.30;;;;;;;;;;5110334;28;20057;-58
2022/12/08 00:40:37;;;;;;;;;;;;;;;;;;5128803;28;20024;-57
2022/12/08 00:43:17;;;;;;;4.90;4.17;;;;;;;;;;5128463;28;19904;-56
2022/12/08 00:46:01;;;;;;;6.07;4.77;;;;;;;;;;5129232;28;20084;-57
2022/12/08 00:48:54;;;;;;;6.47;4.73;;;;;;;;;;5129115;28;20041;-57
2022/12/08 00:51:43;;;;;;;6.53;4.00;;;;;;;;;;5128248;28;20468;-56
2022/12/08 00:54:19;;;;;;;6.20;4.10;;;;;;;;;;5128601;28;20088;-53
2022/12/08 00:57:06;;;;;;;3.80;2.97;;;;;;;;;;5128903;28;20039;-57
2022/12/08 00:59:51;;;;;;;9.27;3.87;;;;;;;;;;5129001;28;20055;-58
2022/12/08 01:05:44;;;;;;;5.70;5.10;;;;;;;;;;5025807;28;20076;-58
2022/12/08 01:08:13;;;;;;;6.03;4.13;;;;;;;;;;5026276;28;20125;-57
2022/12/08 01:11:11;;;;;;;6.87;5.07;;;;;;;;;;5026097;28;20045;-56
2022/12/08 01:13:52;;;;;;;6.73;3.93;;;;;;;;;;5026340;28;20045;-57
2022/12/08 01:16:26;;;;;;;6.97;5.23;;;;;;;;;;5128641;28;20040;-57
2022/12/08 01:19:21;;;;;;;6.10;4.40;;;;;;;;;;5128364;28;20028;-57
2022/12/08 01:28:06;;;;;;;7.93;5.20;;;;;;;;;;5128164;28;20176;-57
2022/12/08 01:30:53;;;;;;;7.03;4.33;;;;;;;;;;5127819;28;20024;-56
2022/12/08 01:33:29;;;;;;;4.87;4.33;;;;;;;;;;5127542;28;20044;-58
2022/12/08 01:39:19;;;;;;;6.37;4.63;;;;;;;;;;5127792;28;20095;-56
2022/12/08 01:42:15;;;;;;;5.10;3.87;;;;;;;;;;5109699;28;20091;-57
2022/12/08 01:45:12;;;;;;;3.83;3.43;;;;;;;;;;5106788;28;20038;-57
2022/12/08 01:47:58;;;;;;;5.57;4.23;;;;;;;;;;5128240;28;20020;-56
2022/12/08 01:50:37;;;;;;;5.43;4.67;;;;;;;;;;5128402;28;20019;-56
2022/12/08 01:53:33;;;;;;;6.57;4.47;;;;;;;;;;5131790;28;20053;-58
2022/12/08 01:56:19;;;;;;;4.83;3.50;;;;;;;;;;5131631;28;20046;-57
2022/12/08 01:58:47;;;;;;;5.20;4.17;;;;;;;;;;5132145;28;20027;-58
2022/12/08 02:04:00;;;;;;;7.23;4.87;;;;;;;;;;5132107;28;20058;-54
2022/12/08 02:15:28;;;;;;;5.00;4.50;;;;;;;;;;5131409;28;20065;-56
2022/12/08 02:18:13;;;;;;;7.87;4.47;;;;;;;;;;5131813;28;20024;-57
2022/12/08 02:24:13;;;;;;;5.83;4.13;;;;;;;;;;5098759;28;20093;-56
2022/12/08 02:27:01;;;;;;;5.33;4.00;;;;;;;;;;5130748;28;20031;-57
2022/12/08 02:29:46;;;;;;;6.80;4.40;;;;;;;;;;5130556;28;20024;-58
2022/12/08 02:32:44;;;;;;;4.50;4.07;;;;;;;;;;5131056;28;20034;-58
2022/12/08 02:35:32;;;;;;;9.80;4.67;;;;;;;;;;5111816;28;20039;-57
2022/12/08 02:41:40;;;;;;;6.83;4.60;;;;;;;;;;5096120;28;20031;-56
2022/12/08 02:44:36;;;;;;;5.03;4.13;;;;;;;;;;5130748;28;20043;-57
2022/12/08 02:47:38;;;;;;;5.37;4.43;;;;;;;;;;5130437;28;20016;-57
2022/12/08 02:50:20;;;;;;;5.83;4.63;;;;;;;;;;5060352;28;20062;-56
2022/12/08 02:53:27;;;;;;;7.17;4.80;;;;;;;;;;5131126;28;20027;-57
2022/12/08 02:56:19;;;;;;;5.87;5.30;;;;;;;;;;5063890;28;20411;-56
2022/12/08 02:59:04;;;;;;;;;;;;;;;;;;;;;
2022/12/08 03:02:14;;;;;;;6.10;4.43;;;;;;;;;;5130391;28;20050;-56
2022/12/08 03:05:08;;;;;;;7.10;4.90;;;;;;;;;;5130473;28;20526;-57
2022/12/08 03:07:54;;;;;;;6.30;4.77;;;;;;;;;;5122651;28;20514;-58
2022/12/08 03:14:03;;;;;;;6.72;6.03;;;;;;;;;;5115850;28;20447;-56
2022/12/08 03:16:45;;;;;;;8.30;4.63;;;;;;;;;;5130613;28;20076;-58
2022/12/08 03:19:32;;;;;;;6.17;4.17;;;;;;;;;;5130575;28;20027;-56
2022/12/08 03:22:29;;;;;;;11.07;5.20;;;;;;;;;;5130700;28;20028;-56
2022/12/08 03:25:38;;;;;;;6.53;5.27;;;;;;;;;;5130699;28;20028;-58
2022/12/08 03:28:27;;;;;;;6.57;3.10;;;;;;;;;;5130614;28;20027;-57
2022/12/08 03:31:17;;;;;;;4.70;4.20;;;;;;;;;;5130725;28;20024;-57
2022/12/08 03:33:53;;;;;;;5.78;4.95;;;;;;;;;;5130153;28;20096;-56
2022/12/08 03:36:45;;;;;;;6.80;4.23;;;;;;;;;;5129967;28;20031;-58
2022/12/08 03:39:18;;;;;;;7.57;5.17;;;;;;;;;;5129797;28;20039;-57
2022/12/08 03:41:45;;;;;;;8.60;5.47;;;;;;;;;;5112540;28;20087;-56
2022/12/08 03:44:17;;;;;;;5.43;3.77;;;;;;;;;;5129940;28;20051;-57
2022/12/08 03:49:58;;;;;;;7.45;5.55;;;;;;;;;;5129842;28;20092;-57
2022/12/08 03:52:48;;;;;;;8.00;5.07;;;;;;;;;;5129965;28;20023;-57
2022/12/08 03:55:34;;;;;;;7.53;4.70;;;;;;;;;;5105336;28;20063;-58
2022/12/08 03:58:18;;;;;;;;;;;;;;;;;;;;;
2022/12/08 04:01:10;;;;;;;5.73;4.33;;;;;;;;;;5108664;28;20055;-54
2022/12/08 04:04:15;;;;;;;;;;;;;;;;;;;;;
2022/12/08 04:09:49;;;;;;;6.90;4.80;;;;;;;;;;5129409;28;20057;-57
2022/12/08 04:15:31;;;;;;;6.67;4.37;;;;;;;;;;5129312;28;20055;-57
2022/12/08 04:18:22;;;;;;;5.10;4.07;;;;;;;;;;5110407;28;20105;-58
2022/12/08 04:30:08;;;;;;;6.17;3.83;;;;;;;;;;5065687;28;20052;-57
2022/12/08 04:33:01;;;;;;;17.83;6.53;;;;;;;;;;5103631;28;20031;-57
2022/12/08 04:38:28;;;;;;;6.00;4.83;;;;;;;;;;5115434;28;20036;-57
2022/12/08 04:41:37;;;;;;;8.10;5.43;;;;;;;;;;5114806;28;20024;-57
2022/12/08 04:47:16;;;;;;;6.07;5.33;;;;;;;;;;5112122;28;20089;-57
2022/12/08 04:50:06;;;;;;;3.87;3.47;;;;;;;;;;5115415;28;20028;-56
2022/12/08 04:53:14;;;;;;;;;;;;;;;;;;;;;
2022/12/08 04:59:20;;;;;;;7.57;5.03;;;;;;;;;;5100462;28;20112;-57
2022/12/08 05:01:55;;;;;;;5.73;4.57;;;;;;;;;;5115388;28;20030;-57
2022/12/08 05:04:46;;;;;;;7.33;5.67;;;;;;;;;;5115779;28;20441;-57
2022/12/08 05:07:23;;;;;;;7.03;4.65;;;;;;;;;;5114535;28;20420;-56
2022/12/08 05:13:18;;;;;;;7.37;6.37;;;;;;;;;;5114841;28;20031;-56
2022/12/08 05:19:48;;;;;;;;;;;;;;;;;;;;;
2022/12/08 05:22:35;;;;;;;7.03;4.43;;;;;;;;;;5106664;28;20454;-57
2022/12/08 05:25:43;;;;;;;;;;;;;;;;;;;;;
2022/12/08 05:28:37;;;;;;;5.00;4.50;;;;;;;;;;5118895;28;20031;-57
2022/12/08 05:31:37;;;;;;;5.83;3.83;;;;;;;;;;5103967;28;20036;-54
2022/12/08 05:37:19;;;;;;;4.17;3.53;;;;;;;;;;5131803;28;20065;-56
2022/12/08 05:40:23;;;;;;;3.93;3.30;;;;;;;;;;5130698;28;20050;-55
2022/12/08 05:49:05;;;;;;;4.07;3.53;;;;;;;;;;5043943;28;20580;-54
2022/12/08 05:57:52;;;;;;;4.72;3.00;;;;;;;;;;5049112;28;20037;-56
2022/12/08 06:00:35;;;;;;;7.20;4.50;;;;;;;;;;5124287;28;20042;-55
2022/12/08 06:03:49;;;;;;;5.77;4.60;;;;;;;;;;5131938;28;20060;-55
2022/12/08 06:13:26;;;;;;;10.27;5.60;;;;;;;;;;5048450;28;20099;-54
2022/12/08 06:15:58;;;;;;;4.23;3.80;;;;;;;;;;5076917;28;20036;-57
2022/12/08 06:18:30;;;;;;;6.30;4.37;;;;;;;;;;5131632;28;20389;-55
2022/12/08 06:21:16;;;;;;;8.20;5.10;;;;;;;;;;5130639;28;20039;-57
2022/12/08 06:23:46;;;;;;;3.90;2.90;;;;;;;;;;5130693;28;20024;-53
2022/12/08 06:29:21;;;;;;;4.90;3.53;;;;;;;;;;5129669;28;20035;-54
2022/12/08 06:32:10;;;;;;;8.10;4.57;;;;;;;;;;5130241;28;20095;-57
2022/12/08 06:35:15;;;;;;;5.70;4.10;;;;;;;;;;5131735;28;20062;-55
2022/12/08 06:37:59;;;;;;;4.53;4.07;;;;;;;;;;5128322;28;20103;-56
2022/12/08 06:40:54;;;;;;;5.60;3.87;;;;;;;;;;5130839;28;20091;-56
2022/12/08 06:43:39;;;;;;;8.27;3.93;;;;;;;;;;5131261;28;20049;-56
2022/12/08 06:46:10;;;;;;;6.10;4.43;;;;;;;;;;5129319;28;20057;-55
2022/12/08 06:48:46;;;;;;;4.20;3.23;;;;;;;;;;5130107;28;20035;-58
2022/12/08 06:54:58;;;;;;;5.00;4.43;;;;;;;;;;5087677;28;20462;-57
2022/12/08 06:57:27;;;;;;;5.30;3.97;;;;;;;;;;5086809;28;20032;-57
2022/12/08 07:00:03;;;;;;;6.80;4.40;;;;;;;;;;5086652;28;20032;-57
2022/12/08 07:05:46;;;;;;;5.13;3.87;;;;;;;;;;5088063;28;20036;-56
2022/12/08 07:08:41;;;;;;;6.87;4.57;;;;;;;;;;5127528;28;20047;-56
2022/12/08 07:11:48;;;;;;;8.87;5.10;;;;;;;;;;5099734;28;20059;-56
2022/12/08 07:14:27;;;;;;;3.90;3.53;;;;;;;;;;5078179;28;20552;-56
2022/12/08 07:20:11;;;;;;;5.07;4.07;;;;;;;;;;5083379;28;20104;-55
2022/12/08 07:28:56;;;;;;;5.63;4.27;;;;;;;;;;5080960;28;20124;-57
2022/12/08 07:31:30;;;;;;;4.07;3.67;;;;;;;;;;5124541;28;20043;-56
2022/12/08 07:34:40;;;;;;;4.43;3.37;;;;;;;;;;5123693;28;20027;-54
2022/12/08 07:37:26;;;;;;;7.68;4.15;;;;;;;;;;5123467;28;20051;-54
2022/12/08 07:40:44;;;;;;;;;;;;;;;;;;;;;
2022/12/08 07:43:29;;;;;;;17.73;6.90;;;;;;;;;;5127062;28;20079;-58
2022/12/08 07:46:06;;;;;;;8.17;4.87;;;;;;;;;;5127258;28;20061;-57
2022/12/08 07:48:57;;;;;;;10.23;5.10;;;;;;;;;;5124941;28;20062;-56
2022/12/08 07:51:48;;;;;;;4.97;3.97;;;;;;;;;;5126631;28;20070;-54
2022/12/08 07:54:14;;;;;;;;;;;;;;;;;;5126759;28;20491;-57
2022/12/08 07:57:17;;;;;;;4.77;3.87;;;;;;;;;;5127795;28;19911;-53
2022/12/08 08:00:17;;;;;;;;;;;;;;;;;;;;;
2022/12/08 08:03:10;;;;;;;5.10;4.57;;;;;;;;;;5118778;28;20075;-56
2022/12/08 08:05:53;;;;;;;;;;;;;;;;;;;;;
2022/12/08 08:08:38;;;;;;;5.67;5.17;;;;;;;;;;5113359;28;20119;-58
2022/12/08 08:11:12;;;;;;;6.70;6.10;;;;;;;;;;5126334;28;20028;-58
2022/12/08 08:13:47;;;;;;;5.67;4.47;;;;;;;;;;5125531;28;20031;-56
2022/12/08 08:16:30;;;;;;;3.87;3.27;;;;;;;;;;5127007;28;20063;-56
2022/12/08 08:19:14;;;;;;;17.97;5.53;;;;;;;;;;5123366;28;20032;-57
2022/12/08 08:21:49;;;;;;;8.27;5.30;;;;;;;;;;5123031;28;20061;-56
2022/12/08 08:24:43;;;;;;;6.10;5.33;;;;;;;;;;5123221;28;20035;-58
2022/12/08 08:30:32;;;;;;;8.57;5.53;;;;;;;;;;5102724;28;20038;-55
2022/12/08 08:33:20;;;;;;;6.80;5.90;;;;;;;;;;5122302;28;20111;-57
2022/12/08 08:41:35;;;;;;;9.87;7.33;;;;;;;;;;5126854;28;20038;-55
2022/12/08 08:46:58;;;;;;;9.80;6.07;;;;;;;;;;5125171;28;20095;-55
2022/12/08 08:49:36;;;;;;;9.70;7.03;;;;;;;;;;5115341;28;20148;-56
2022/12/08 08:52:35;;;;;;;13.93;6.60;;;;;;;;;;5123549;28;20027;-55
2022/12/08 08:55:23;;;;;;;8.77;6.57;;;;;;;;;;5056140;28;20036;-56
2022/12/08 09:01:17;;;;;;;8.33;7.50;;;;;;;;;;5122775;28;20040;-56
2022/12/08 09:04:19;;;;;;;5.90;5.30;;;;;;;;;;5121279;28;20038;-56
2022/12/08 09:06:52;;;;;;;7.03;5.50;;;;;;;;;;5121464;28;20031;-56
2022/12/08 09:12:27;;;;;;;5.90;4.60;;;;;;;;;;5108297;28;20035;-55
2022/12/08 09:15:12;;;;;;;;;;;;;;;;;;;;;
2022/12/08 09:21:54;;;;;;;8.80;5.97;;;;;;;;;;4980621;28;20053;-52
2022/12/08 09:24:19;;;;;;;9.73;6.93;;;;;;;;;;5021014;28;20030;-55
2022/12/08 09:26:58;;;;;;;9.17;6.47;;;;;;;;;;5019998;28;20033;-56
2022/12/08 09:39:04;;;;;;;8.40;5.47;;;;;;;;;;5019256;28;20048;-56
2022/12/08 09:41:50;;;;;;;7.20;5.67;;;;;;;;;;5039031;28;20042;-54
2022/12/08 09:44:47;;;;;;;6.20;5.57;;;;;;;;;;5039322;28;20038;-55
2022/12/08 09:47:32;;;;;;;9.93;6.10;;;;;;;;;;5040798;28;20495;-55
2022/12/08 09:53:23;;;;;;;9.13;4.70;;;;;;;;;;5041117;28;20107;-55
2022/12/08 09:56:00;;;;;;;8.23;4.87;;;;;;;;;;5039953;28;20096;-57
2022/12/08 09:59:07;;;;;;;;;;;;;;;;;;;;;
2022/12/08 10:01:51;;;;;;;5.23;4.33;;;;;;;;;;5094083;28;20163;-53
2022/12/08 10:04:50;;;;;;;7.53;4.60;;;;;;;;;;5101753;28;20032;-56
2022/12/08 10:07:38;;;;;;;4.33;3.50;;;;;;;;;;5124321;28;20036;-56
2022/12/08 10:13:34;;;;;;;4.73;3.43;;;;;;;;;;5103608;28;20311;-54
2022/12/08 10:19:40;;;;;;;;;;;;;;;;;;;;;
2022/12/08 10:22:28;;;;;;;6.50;4.87;;;;;;;;;;5128803;28;20047;-54
2022/12/08 10:25:12;;;;;;;5.47;4.20;;;;;;;;;;5111179;28;20027;-54
2022/12/08 10:28:06;;;;;;;5.30;3.83;;;;;;;;;;5110379;28;20119;-55
2022/12/08 10:31:11;;;;;;;;;;;;;;;;;;;;;
2022/12/08 10:33:53;;;;;;;7.13;3.70;;;;;;;;;;5099608;28;20074;-55
2022/12/08 10:36:40;;;;;;;8.20;4.90;;;;;;;;;;5130117;28;20492;-53
2022/12/08 10:51:53;;;;;;;5.67;4.00;;;;;;;;;;5046789;28;20075;-55
2022/12/08 10:54:37;;;;;;;5.90;4.87;;;;;;;;;;5033500;28;20056;-55
2022/12/08 10:57:27;;;;;;;4.67;3.13;;;;;;;;;;5029969;28;20037;-55
2022/12/08 11:00:47;;;;;;;5.40;3.80;;;;;;;;;;5104359;28;20031;-53
2022/12/08 11:06:48;;;;;;;3.27;2.83;;;;;;;;;;4968031;29;20031;-53
2022/12/08 11:09:26;;;;;;;4.75;4.25;;;;;;;;;;5130507;28;20028;-55
2022/12/08 11:12:31;;;;;;;3.90;2.83;;;;;;;;;;5129433;28;20027;-55
2022/12/08 11:15:07;;;;;;;3.60;2.90;;;;;;;;;;5129421;28;20039;-54
2022/12/08 11:20:48;;;;;;;4.13;2.37;;;;;;;;;;5118421;28;20034;-57
2022/12/08 11:23:26;;;;;;;4.23;2.83;;;;;;;;;;5130076;28;20079;-53
2022/12/08 11:26:36;;;;;;;;;;;;;;;;;;;;;
2022/12/08 11:29:44;;;;;;;9.77;4.73;;;;;;;;;;5081847;28;20094;-52
2022/12/08 11:32:20;;;;;;;4.53;3.57;;;;;;;;;;5129896;28;20471;-54
2022/12/08 11:34:58;;;;;;;8.97;3.77;;;;;;;;;;5128900;28;20049;-56
2022/12/08 11:41:05;;;;;;;5.43;3.67;;;;;;;;;;5046466;28;20041;-55
2022/12/08 11:47:30;;;;;;;4.85;4.25;;;;;;;;;;5067081;28;20065;-56
2022/12/08 11:57:15;;;;;;;5.55;3.22;;;;;;;;;;4949326;29;20031;-54
2022/12/08 12:00:16;;;;;;;3.67;3.20;;;;;;;;;;4947049;29;20067;-55
2022/12/08 12:03:24;;;;;;;5.15;3.05;;;;;;;;;;4945887;29;20119;-54
2022/12/08 12:06:22;;;;;;;3.50;2.75;;;;;;;;;;4928164;29;20130;-54
2022/12/08 12:09:06;;;;;;;4.00;2.97;;;;;;;;;;4967761;29;20035;-57
2022/12/08 12:14:56;;;;;;;3.55;2.53;;;;;;;;;;4987848;28;20143;-53
2022/12/08 12:18:05;;;;;;;3.80;2.80;;;;;;;;;;5091326;28;20051;-55
2022/12/08 12:20:59;;;;;;;4.28;2.88;;;;;;;;;;5066054;28;20033;-54
2022/12/08 12:23:45;;;;;;;6.53;2.83;;;;;;;;;;5065298;28;20542;-55
2022/12/08 12:33:14;;;;;;;;;;;;;;;;;;;;;
2022/12/08 12:41:22;;;;;;;;;;;;;;;;;;5066476;28;20122;-55
2022/12/08 12:44:21;;;;;;;2.50;1.92;;;;;;;;;;5061038;28;20417;-56
2022/12/08 12:50:22;;;;;;;3.00;2.25;;;;;;;;;;5051858;28;20060;-55
2022/12/08 12:53:07;;;;;;;3.40;2.35;;;;;;;;;;5082964;28;20042;-57
2022/12/08 12:55:56;;;;;;;5.82;2.72;;;;;;;;;;5088961;28;20096;-56
2022/12/08 13:04:40;;;;;;;4.78;3.65;;;;;;;;;;5065691;28;20067;-57
2022/12/08 13:07:28;;;;;;;3.97;2.17;;;;;;;;;;5065173;28;20037;-56
2022/12/08 13:10:33;;;;;;;4.28;3.03;;;;;;;;;;5066497;28;20036;-57
2022/12/08 13:13:34;;;;;;;9.00;4.80;;;;;;;;;;5098782;28;20051;-56
2022/12/08 13:16:24;;;;;;;11.07;4.15;;;;;;;;;;5063801;28;20051;-56
2022/12/08 13:19:24;;;;;;;12.10;3.27;;;;;;;;;;5089973;28;20032;-57
2022/12/08 13:22:00;;;;;;;3.83;2.70;;;;;;;;;;5085480;28;20267;-57
2022/12/08 13:25:02;;;;;;;5.90;2.65;;;;;;;;;;5086468;28;20037;-56
2022/12/08 13:27:35;;;;;;;4.65;2.80;;;;;;;;;;5025841;28;20102;-56
2022/12/08 13:33:23;;;;;;;3.67;2.85;;;;;;;;;;5006006;28;20124;-55
2022/12/08 13:36:07;;;;;;;3.60;2.55;;;;;;;;;;4986149;28;20042;-56
2022/12/08 13:38:44;;;;;;;3.78;2.03;;;;;;;;;;5036624;28;20045;-55
2022/12/08 13:41:50;;;;;;;4.35;2.78;;;;;;;;;;5044935;28;20121;-55
2022/12/08 13:44:53;;;;;;;;;;;;;;;;;;;;;
2022/12/08 13:47:32;;;;;;;4.88;3.00;;;;;;;;;;5065041;28;20068;-55
2022/12/08 13:50:14;;;;;;;;;;;;;;;;;;;;;
2022/12/08 13:52:59;;;;;;;8.93;3.63;;;;;;;;;;5067750;28;20109;-58
2022/12/08 13:58:32;;;;;;;5.47;2.28;;;;;;;;;;5068094;28;20055;-56
2022/12/08 14:01:10;;;;;;;6.15;3.28;;;;;;;;;;5050302;28;20655;-56
2022/12/08 14:03:57;;;;;;;23.77;10.15;;;;;;;;;;5051896;28;20039;-57
2022/12/08 14:06:48;;;;;;;11.88;5.97;;;;;;;;;;5068596;28;20506;-54
2022/12/08 14:09:14;;;;;;;;;;;;;;;;;;5066480;28;20032;-57
2022/12/08 14:12:04;;;;;;;7.82;3.90;;;;;;;;;;5068099;28;19905;-57
2022/12/08 14:14:41;;;;;;;13.70;3.80;;;;;;;;;;5068591;28;20031;-55
2022/12/08 14:21:01;;;;;;;5.20;2.75;;;;;;;;;;5065342;28;20031;-57
2022/12/08 14:24:04;;;;;;;3.33;2.03;;;;;;;;;;5130894;28;20031;-57
2022/12/08 14:27:02;;;;;;;;;;;;;;;;;;;;;
2022/12/08 14:29:57;;;;;;;5.18;3.88;;;;;;;;;;5130534;28;20047;-57
2022/12/08 14:33:02;;;;;;;;;;;;;;;;;;;;;
2022/12/08 14:35:30;;;;;;;3.78;2.33;;;;;;;;;;5130128;28;20063;-57
2022/12/08 14:38:34;;;;;;;4.32;2.85;;;;;;;;;;5128915;28;20759;-57
2022/12/08 14:41:18;;;;;;;2.85;1.85;;;;;;;;;;5124653;28;20039;-57
2022/12/08 14:44:03;;;;;;;2.97;2.10;;;;;;;;;;5129128;28;20174;-55
2022/12/08 14:46:49;;;;;;;3.88;2.75;;;;;;;;;;5130985;28;20054;-55
2022/12/08 14:49:48;;;;;;;4.13;2.55;;;;;;;;;;5118041;28;20032;-56
2022/12/08 15:11:15;;;;;;;6.05;3.55;;;;;;;;;;5092739;28;20032;-55
2022/12/08 15:14:44;;;;;;;3.78;2.47;;;;;;;;;;5117178;27;20412;-56
2022/12/08 15:17:14;;;;;;;5.63;2.37;;;;;;;;;;5109633;27;20134;-56
2022/12/08 15:20:16;;;;;;;7.40;3.45;;;;;;;;;;5108880;28;20050;-57
2022/12/08 15:23:04;;;;;;;3.60;2.88;;;;;;;;;;5117239;28;20015;-58
2022/12/08 15:26:11;;;;;;;;;;;;;;;;;;;;;
2022/12/08 15:31:49;;;;;;;10.45;4.63;;;;;;;;;;5095740;28;20039;-55
2022/12/08 15:37:34;;;;;;;5.57;2.50;;;;;;;;;;5098978;28;20080;-56
2022/12/08 15:40:03;;;;;;;3.50;2.35;;;;;;;;;;5086806;28;20071;-54
2022/12/08 15:46:17;;;;;;;6.68;2.65;;;;;;;;;;5113893;28;20385;-57
2022/12/08 15:49:22;;;;;;;6.03;3.77;;;;;;;;;;5108472;28;20130;-55
2022/12/08 15:52:08;;;;;;;2.97;2.13;;;;;;;;;;5112963;28;20055;-57
2022/12/08 16:01:07;;;;;;;1.92;1.63;;;;;;;;;;5116198;28;20111;-57
2022/12/08 16:06:37;;;;;;;3.33;2.90;;;;;;;;;;5045626;28;20195;-56
2022/12/08 16:09:51;;;;;;;2.90;2.25;;;;;;;;;;5053875;28;20025;-57
2022/12/08 16:18:09;;;;;;;3.70;2.47;;;;;;;;;;5013135;28;20029;-57
2022/12/08 16:24:11;;;;;;;3.15;2.45;;;;;;;;;;4955425;29;20533;-54
2022/12/08 16:30:07;;;;;;;;;;;;;;;;;;;;;
2022/12/08 16:36:17;;;;;;;;;;;;;;;;;;;;;
2022/12/08 16:39:17;;;;;;;7.10;3.85;;;;;;;;;;5007695;28;20060;-57
2022/12/08 16:44:58;;;;;;;;;;;;;;;;;;;;;
2022/12/08 16:47:45;;;;;;;4.05;3.58;;;;;;;;;;5115394;28;20376;-58
2022/12/08 16:50:37;;;;;;;4.53;2.80;;;;;;;;;;5098568;28;20069;-57
2022/12/08 16:53:30;;;;;;;6.13;3.22;;;;;;;;;;5097502;28;20519;-56
2022/12/08 16:56:07;;;;;;;5.47;4.13;;;;;;;;;;5114951;28;20024;-57
2022/12/08 16:59:21;;;;;;;5.00;3.63;;;;;;;;;;5114210;28;20461;-58
2022/12/08 17:02:08;;;;;;;;;;;;;;;;;;;;;
2022/12/08 17:05:04;;;;;;;6.07;4.03;;;;;;;;;;5055961;28;20399;-58
2022/12/08 17:08:02;;;;;;;4.53;3.92;;;;;;;;;;5086537;28;20035;-56
2022/12/08 17:10:37;;;;;;;4.47;3.23;;;;;;;;;;5111784;28;20361;-58
2022/12/08 17:16:14;;;;;;;6.27;4.63;;;;;;;;;;5114382;28;20039;-57
2022/12/08 17:19:29;;;;;;;;;;;;;;;;;;;;;
2022/12/08 17:25:01;;;;;;;4.82;3.17;;;;;;;;;;5119049;28;20149;-58
2022/12/08 17:33:26;;;;;;;4.43;3.83;;;;;;;;;;5101842;28;20028;-58
2022/12/08 17:35:54;;;;;;;;;;;;;;;;;;5119419;28;20349;-58
2022/12/08 17:38:55;;;;;;;6.10;3.40;;;;;;;;;;5118769;28;19904;-57
2022/12/08 17:41:38;;;;;;;4.27;3.20;;;;;;;;;;5056245;28;20052;-58
2022/12/08 17:44:27;;;;;;;6.22;3.45;;;;;;;;;;5116555;28;20042;-57
2022/12/08 17:49:59;;;;;;;5.17;4.47;;;;;;;;;;5075455;28;20028;-58
2022/12/08 17:55:37;;;;;;;3.85;3.33;;;;;;;;;;5075313;28;20039;-57
2022/12/08 17:58:21;;;;;;;8.07;4.72;;;;;;;;;;5074931;28;20024;-57
2022/12/08 18:01:22;;;;;;;7.03;4.23;;;;;;;;;;5075798;28;20417;-57
2022/12/08 18:06:52;;;;;;;4.38;3.28;;;;;;;;;;5079657;28;20047;-58
2022/12/08 18:09:33;;;;;;;8.07;3.92;;;;;;;;;;5118279;28;20476;-56
2022/12/08 18:12:23;;;;;;;4.53;3.90;;;;;;;;;;5114374;28;20391;-57
2022/12/08 18:21:21;;;;;;;6.18;3.60;;;;;;;;;;5118998;28;20469;-58
2022/12/08 18:30:48;;;;;;;6.57;4.25;;;;;;;;;;4995602;28;20026;-58
2022/12/08 18:33:40;;;;;;;4.13;2.97;;;;;;;;;;4991368;28;20038;-58
2022/12/08 18:36:35;;;;;;;5.93;3.73;;;;;;;;;;5048061;28;20395;-55
2022/12/08 18:39:13;;;;;;;4.90;3.67;;;;;;;;;;5101590;28;20024;-57
2022/12/08 18:42:21;;;;;;;4.15;2.90;;;;;;;;;;5104133;28;20073;-58
2022/12/08 18:48:02;;;;;;;5.00;3.53;;;;;;;;;;5102140;28;20035;-57
2022/12/08 18:51:02;;;;;;;5.30;3.87;;;;;;;;;;5115943;28;20024;-57
2022/12/08 18:53:58;;;;;;;8.50;3.27;;;;;;;;;;5097603;28;20036;-58
2022/12/08 18:56:37;;;;;;;5.53;3.37;;;;;;;;;;5115804;28;20529;-56
2022/12/08 18:59:19;;;;;;;4.90;4.23;;;;;;;;;;5117222;28;20024;-57
2022/12/08 19:02:05;;;;;;;8.03;5.10;;;;;;;;;;5116662;28;20060;-57
2022/12/08 19:04:37;;;;;;;8.23;4.53;;;;;;;;;;5098215;28;20026;-57
2022/12/08 19:07:20;;;;;;;9.07;5.57;;;;;;;;;;5116023;28;20023;-58
2022/12/08 19:09:58;;;;;;;8.35;4.65;;;;;;;;;;5116935;28;20435;-58
2022/12/08 19:12:30;;;;;;;4.80;4.17;;;;;;;;;;5098757;28;20053;-56
2022/12/08 19:15:02;;;;;;;5.93;3.42;;;;;;;;;;5116261;28;20469;-54
2022/12/08 19:17:53;;;;;;;5.40;3.75;;;;;;;;;;5116724;28;20040;-55
2022/12/08 19:20:55;;;;;;;8.70;4.10;;;;;;;;;;5116246;28;20024;-55
2022/12/08 19:23:50;;;;;;;5.78;4.25;;;;;;;;;;5098313;28;20032;-57
2022/12/08 19:26:52;;;;;;;8.00;4.07;;;;;;;;;;5098725;28;20461;-60
2022/12/08 19:32:38;;;;;;;5.95;3.13;;;;;;;;;;5033922;28;20143;-58
2022/12/08 19:38:12;;;;;;;6.00;4.37;;;;;;;;;;5043147;28;20039;-58
2022/12/08 19:47:20;;;;;;;4.77;4.27;;;;;;;;;;5110023;28;20103;-58
2022/12/08 19:53:01;;;;;;;;;;;;;;;;;;;;;
2022/12/08 19:55:40;;;;;;;;;;;;;;;;;;;;;
2022/12/08 20:01:23;;;;;;;6.43;4.27;;;;;;;;;;5033045;28;20033;-58
2022/12/08 20:04:05;;;;;;;5.57;4.97;;;;;;;;;;5034030;28;20040;-57
2022/12/08 20:07:09;;;;;;;6.13;5.00;;;;;;;;;;5097178;28;20039;-58
2022/12/08 20:09:51;;;;;;;9.10;3.57;;;;;;;;;;5094984;28;20031;-57
2022/12/08 20:21:19;;;;;;;4.70;4.30;;;;;;;;;;5116298;28;20525;-57
2022/12/08 20:26:50;;;;;;;3.90;3.07;;;;;;;;;;5115806;28;20070;-56
2022/12/08 20:29:28;;;;;;;7.53;5.10;;;;;;;;;;5116337;28;20028;-53
2022/12/08 20:32:28;;;;;;;7.23;5.27;;;;;;;;;;5082407;28;20434;-56
2022/12/08 20:38:10;;;;;;;5.63;4.72;;;;;;;;;;5052500;28;20041;-57
2022/12/08 20:41:06;;;;;;;11.00;4.67;;;;;;;;;;5107054;28;20483;-57
2022/12/08 20:43:57;;;;;;;6.70;5.40;;;;;;;;;;5116011;28;20549;-57
2022/12/08 20:46:29;;;;;;;6.50;4.85;;;;;;;;;;5097656;28;20112;-55
2022/12/08 20:49:01;;;;;;;7.00;5.30;;;;;;;;;;5116242;28;20085;-58
2022/12/08 20:51:33;;;;;;;7.50;5.13;;;;;;;;;;5115903;28;20015;-57
2022/12/08 20:57:12;;;;;;;6.60;5.37;;;;;;;;;;5114476;28;20078;-57
2022/12/08 20:59:44;;;;;;;8.00;4.60;;;;;;;;;;5103754;28;20525;-57
2022/12/08 21:02:53;;;;;;;7.30;6.13;;;;;;;;;;5103581;28;20028;-57
2022/12/08 21:11:57;;;;;;;7.67;6.07;;;;;;;;;;4989833;28;20034;-56
2022/12/08 21:14:51;;;;;;;8.97;5.10;;;;;;;;;;5101199;28;20473;-57
2022/12/08 21:17:45;;;;;;;8.03;6.03;;;;;;;;;;5114307;28;20076;-58
2022/12/08 21:23:25;;;;;;;8.17;7.33;;;;;;;;;;5114193;28;20038;-57
2022/12/08 21:26:14;;;;;;;7.57;6.27;;;;;;;;;;5093288;28;20062;-57
2022/12/08 21:28:46;;;;;;;16.40;9.33;;;;;;;;;;5114267;28;20030;-57
2022/12/08 21:35:02;;;;;;;9.17;6.50;;;;;;;;;;5091304;28;20034;-57
2022/12/08 21:37:58;;;;;;;;;;;;;;;;;;;;;
2022/12/08 21:40:42;;;;;;;8.40;7.03;;;;;;;;;;5113201;28;20376;-56
2022/12/08 21:49:31;;;;;;;6.70;5.63;;;;;;;;;;5050999;28;20065;-57
2022/12/08 21:52:22;;;;;;;13.87;7.20;;;;;;;;;;5051724;28;20033;-56
2022/12/08 21:55:19;;;;;;;12.77;6.37;;;;;;;;;;5034610;28;20498;-58
2022/12/08 22:04:06;;;;;;;6.37;4.97;;;;;;;;;;5065711;28;20044;-57
2022/12/08 22:06:52;;;;;;;7.90;5.47;;;;;;;;;;5065686;28;20037;-54
2022/12/08 22:09:42;;;;;;;10.30;7.70;;;;;;;;;;5068854;28;20029;-57
2022/12/08 22:12:44;;;;;;;13.50;8.10;;;;;;;;;;5068602;28;20029;-57
2022/12/08 22:15:32;;;;;;;12.83;9.47;;;;;;;;;;5005832;28;20477;-57
2022/12/08 22:18:24;;;;;;;9.87;7.97;;;;;;;;;;5103989;28;20069;-57
2022/12/08 22:21:29;;;;;;;8.80;7.27;;;;;;;;;;5118498;28;20031;-57
2022/12/08 22:27:08;;;;;;;15.77;9.37;;;;;;;;;;5131350;28;20043;-58
2022/12/08 22:29:55;;;;;;;11.60;8.47;;;;;;;;;;5113400;28;20031;-58
2022/12/08 22:32:36;;;;;;;11.03;7.97;;;;;;;;;;5131343;28;20020;-56
2022/12/08 22:41:06;;;;;;;12.13;6.93;;;;;;;;;;5130185;28;20059;-58
2022/12/08 22:49:52;;;;;;;11.77;10.50;;;;;;;;;;5028590;28;20065;-58
2022/12/08 22:52:21;;;;;;;15.87;11.27;;;;;;;;;;5027973;28;20050;-59
2022/12/08 22:54:56;;;;;;;15.57;9.07;;;;;;;;;;5028718;28;20410;-58
2022/12/08 22:57:50;;;;;;;14.27;9.73;;;;;;;;;;5028473;28;20049;-55
2022/12/08 23:00:52;;;;;;;;;;;;;;;;;;;;;
2022/12/08 23:12:58;;;;;;;7.10;6.07;;;;;;;;;;4988600;28;20037;-57
2022/12/08 23:15:52;;;;;;;;;;;;;;;;;;;;;
2022/12/08 23:18:34;;;;;;;6.43;4.60;;;;;;;;;;4988483;28;20073;-57
2022/12/08 23:21:28;;;;;;;9.47;6.00;;;;;;;;;;5014243;28;20065;-56
2022/12/08 23:24:07;;;;;;;6.80;5.60;;;;;;;;;;5130149;28;20038;-55
2022/12/08 23:26:46;;;;;;;9.60;8.70;;;;;;;;;;5130127;28;20039;-56
2022/12/08 23:32:42;;;;;;;10.95;8.43;;;;;;;;;;5113809;28;20042;-55
2022/12/08 23:35:31;;;;;;;12.07;8.23;;;;;;;;;;5111551;28;20030;-56
2022/12/08 23:38:09;;;;;;;7.50;6.10;;;;;;;;;;5130380;28;20055;-58
2022/12/08 23:41:10;;;;;;;5.27;4.73;;;;;;;;;;5121054;28;20403;-57
2022/12/08 23:44:13;;;;;;;5.35;4.60;;;;;;;;;;5129653;28;20039;-56
2022/12/08 23:47:09;;;;;;;7.97;4.83;;;;;;;;;;5130250;28;20031;-57
2022/12/08 23:50:13;;;;;;;6.20;4.67;;;;;;;;;;5129232;28;20104;-56
2022/12/08 23:52:52;;;;;;;4.37;3.67;;;;;;;;;;5129518;28;20034;-57
2022/12/08 23:55:31;;;;;;;7.30;5.63;;;;;;;;;;5129795;28;20031;-57
2022/12/08 23:58:10;;;;;;;4.33;3.43;;;;;;;;;;5105958;28;20266;-56
